createdAt,value
2023-03-07T00:04:55.942Z,24.07
2023-03-07T00:10:03.673Z,21.23
2023-03-07T00:15:10.475Z,23.17
2023-03-07T00:20:15.963Z,19.93
2023-03-07T00:25:23.530Z,22.27
2023-03-07T00:30:28.441Z,21.63
2023-03-07T00:35:33.970Z,23.87
2023-03-07T00:40:41.521Z,23.10
2023-03-07T00:45:48.276Z,23.37
2023-03-07T00:50:55.452Z,21.90
2023-03-07T00:56:10.088Z,22.07
2023-03-07T01:01:20.646Z,30.83
2023-03-07T01:06:28.052Z,22.37
2023-03-07T01:11:37.001Z,22.13
2023-03-07T01:16:42.082Z,22.93
2023-03-07T01:21:48.450Z,22.70
2023-03-07T01:26:55.994Z,22.00
2023-03-07T01:32:03.707Z,23.17
2023-03-07T01:37:09.151Z,22.37
2023-03-07T01:42:17.053Z,20.23
2023-03-07T01:47:22.130Z,21.77
2023-03-07T01:52:35.376Z,20.77
2023-03-07T01:57:52.096Z,17.60
2023-03-07T02:03:06.521Z,22.07
2023-03-07T02:08:16.541Z,21.50
2023-03-07T02:13:24.617Z,22.67
2023-03-07T02:18:33.352Z,22.70
2023-03-07T02:23:45.949Z,23.63
2023-03-07T02:28:54.235Z,21.80
2023-03-07T02:33:59.886Z,19.50
2023-03-07T02:39:09.403Z,22.27
2023-03-07T02:44:17.054Z,22.50
2023-03-07T02:49:22.518Z,22.80
2023-03-07T02:54:28.021Z,20.77
2023-03-07T02:59:35.943Z,17.80
2023-03-07T03:04:41.151Z,17.90
2023-03-07T03:09:46.735Z,18.90
2023-03-07T03:14:54.503Z,19.53
2023-03-07T03:19:59.618Z,19.83
2023-03-07T03:25:05.191Z,20.57
2023-03-07T03:30:15.579Z,19.23
2023-03-07T03:35:20.868Z,19.97
2023-03-07T03:40:26.429Z,19.83
2023-03-07T03:45:34.288Z,20.80
2023-03-07T03:50:40.200Z,23.47
2023-03-07T03:55:45.776Z,18.73
2023-03-07T04:00:54.630Z,17.20
2023-03-07T04:06:04.812Z,17.93
2023-03-07T04:11:10.236Z,18.70
2023-03-07T04:16:18.176Z,16.87
2023-03-07T04:21:24.105Z,18.83
2023-03-07T04:26:32.565Z,18.33
2023-03-07T04:31:41.571Z,19.47
2023-03-07T04:36:47.881Z,18.37
2023-03-07T04:41:52.855Z,21.67
2023-03-07T04:47:04.057Z,20.27
2023-03-07T04:52:12.354Z,17.87
2023-03-07T04:57:17.740Z,17.67
2023-03-07T05:02:25.397Z,17.60
2023-03-07T05:07:32.023Z,19.13
2023-03-07T05:12:37.052Z,19.30
2023-03-07T05:17:46.289Z,18.53
2023-03-07T05:22:51.677Z,19.00
2023-03-07T05:27:59.296Z,16.73
2023-03-07T05:33:07.315Z,20.73
2023-03-07T05:38:12.601Z,22.10
2023-03-07T05:43:18.063Z,17.57
2023-03-07T05:48:25.787Z,15.40
2023-03-07T05:53:30.911Z,16.47
2023-03-07T05:58:36.981Z,18.83
2023-03-07T06:03:45.697Z,16.20
2023-03-07T06:08:53.607Z,17.83
2023-03-07T06:13:58.728Z,18.87
2023-03-07T06:19:09.178Z,15.00
2023-03-07T06:24:14.359Z,16.20
2023-03-07T06:29:19.507Z,21.73
2023-03-07T06:34:28.715Z,14.73
2023-03-07T06:39:34.821Z,16.87
2023-03-07T06:44:44.178Z,16.73
2023-03-07T06:49:52.513Z,14.27
2023-03-07T06:54:58.525Z,14.20
2023-03-07T07:00:07.413Z,15.03
2023-03-07T07:05:15.615Z,15.33
2023-03-07T07:10:21.250Z,14.63
2023-03-07T07:15:26.593Z,15.03
2023-03-07T07:20:34.383Z,15.17
2023-03-07T07:25:42.780Z,14.33
2023-03-07T07:30:48.009Z,15.30
2023-03-07T07:35:59.882Z,16.53
2023-03-07T07:41:05.242Z,19.60
2023-03-07T07:46:11.974Z,15.23
2023-03-07T07:51:20.452Z,14.73
2023-03-07T07:56:30.077Z,12.50
2023-03-07T08:01:37.483Z,15.20
2023-03-07T08:06:46.104Z,16.20
2023-03-07T08:11:51.362Z,12.57
2023-03-07T08:16:58.630Z,12.07
2023-03-07T08:22:06.851Z,20.40
2023-03-07T08:27:11.851Z,14.77
2023-03-07T08:32:17.632Z,11.37
2023-03-07T08:37:31.195Z,12.63
2023-03-07T08:42:39.483Z,26.13
2023-03-07T08:47:44.548Z,14.40
2023-03-07T08:52:54.685Z,16.30
2023-03-07T08:57:59.808Z,10.90
2023-03-07T09:03:09.382Z,11.23
2023-03-07T09:08:28.456Z,16.13
2023-03-07T09:13:43.000Z,7.73
2023-03-07T09:18:51.608Z,12.67
2023-03-07T09:24:00.462Z,12.03
2023-03-07T09:29:08.089Z,15.50
2023-03-07T09:34:13.674Z,12.63
2023-03-07T09:39:21.329Z,7.70
2023-03-07T09:44:43.451Z,9.00
2023-03-07T09:49:53.354Z,10.27
2023-03-07T09:55:05.167Z,14.47
2023-03-07T10:00:25.511Z,12.77
2023-03-07T10:05:34.783Z,8.10
2023-03-07T10:10:45.840Z,11.07
2023-03-07T10:15:54.923Z,8.67
2023-03-07T10:21:08.558Z,10.93
2023-03-07T10:26:25.791Z,14.07
2023-03-07T10:31:36.038Z,11.37
2023-03-07T10:36:46.702Z,14.33
2023-03-07T10:41:54.339Z,12.80
2023-03-07T10:47:02.234Z,9.00
2023-03-07T10:52:09.804Z,9.97
2023-03-07T10:57:19.126Z,16.73
2023-03-07T11:02:41.532Z,9.17
2023-03-07T11:07:49.875Z,15.07
2023-03-07T11:13:17.223Z,11.93
2023-03-07T11:18:40.321Z,16.97
2023-03-07T11:24:03.897Z,12.93
2023-03-07T11:29:14.635Z,12.60
2023-03-07T11:34:33.534Z,11.47
2023-03-07T11:39:49.780Z,12.37
2023-03-07T11:45:05.756Z,13.10
2023-03-07T11:50:23.348Z,13.47
2023-03-07T11:55:35.879Z,13.30
2023-03-07T12:01:01.264Z,14.63
2023-03-07T12:06:22.911Z,8.13
2023-03-07T12:11:41.821Z,10.10
2023-03-07T12:17:00.196Z,9.47
2023-03-07T12:22:25.678Z,15.37
2023-03-07T12:27:36.157Z,15.87
2023-03-07T12:32:52.126Z,11.20
2023-03-07T12:38:05.543Z,12.97
2023-03-07T12:43:19.580Z,14.43
2023-03-07T12:48:40.603Z,12.67
2023-03-07T12:53:53.727Z,14.80
2023-03-07T12:59:02.633Z,11.80
2023-03-07T13:04:24.336Z,10.30
2023-03-07T13:09:33.762Z,16.10
2023-03-07T13:14:42.870Z,9.13
2023-03-07T13:20:03.392Z,15.20
2023-03-07T13:25:39.022Z,11.40
2023-03-07T13:31:29.269Z,10.93
2023-03-07T13:36:41.561Z,7.07
2023-03-07T13:41:52.066Z,11.90
2023-03-07T13:47:01.517Z,7.37
2023-03-07T13:52:44.238Z,7.17
2023-03-07T13:57:51.233Z,7.67
2023-03-07T14:02:57.978Z,13.47
2023-03-07T14:08:07.441Z,8.87
2023-03-07T14:13:50.072Z,7.20
2023-03-07T14:19:11.482Z,7.80
2023-03-07T14:24:47.627Z,7.13
2023-03-07T14:30:01.826Z,11.93
2023-03-07T14:35:07.479Z,8.33
2023-03-07T14:40:35.653Z,8.73
2023-03-07T14:45:50.193Z,7.00
2023-03-07T14:50:57.743Z,7.23
2023-03-07T14:56:04.201Z,8.43
2023-03-07T15:01:18.526Z,7.87
2023-03-07T15:06:25.471Z,7.83
2023-03-07T15:11:42.456Z,8.43
2023-03-07T15:16:53.692Z,13.93
2023-03-07T15:22:02.945Z,6.90
2023-03-07T15:27:11.011Z,9.07
2023-03-07T15:32:38.441Z,8.57
2023-03-07T15:37:58.696Z,9.10
2023-03-07T15:43:28.347Z,9.73
2023-03-07T15:48:43.462Z,8.30
2023-03-07T15:53:58.585Z,6.60
2023-03-07T15:59:07.072Z,7.83
2023-03-07T16:04:40.870Z,6.80
2023-03-07T16:09:45.888Z,6.87
2023-03-07T16:14:52.006Z,6.33
2023-03-07T16:19:59.680Z,7.63
2023-03-07T16:25:07.690Z,7.13
2023-03-07T16:30:17.563Z,8.20
2023-03-07T16:35:27.018Z,6.60
2023-03-07T16:40:35.089Z,7.20
2023-03-07T16:45:44.518Z,6.00
2023-03-07T16:50:52.260Z,6.07
2023-03-07T16:56:00.113Z,7.77
2023-03-07T17:01:05.517Z,7.43
2023-03-07T17:06:25.325Z,6.77
2023-03-07T17:11:33.043Z,6.63
2023-03-07T17:16:40.148Z,7.23
2023-03-07T17:21:48.076Z,9.50
2023-03-07T17:26:53.800Z,5.37
2023-03-07T17:31:58.893Z,6.53
2023-03-07T17:37:07.261Z,3.30
2023-03-07T17:42:12.685Z,3.63
2023-03-07T17:47:18.401Z,4.67
2023-03-07T17:52:26.484Z,2.17
2023-03-07T17:57:32.172Z,2.03
2023-03-07T18:02:37.184Z,2.00
2023-03-07T18:07:45.152Z,2.10
2023-03-07T18:12:53.725Z,1.97
2023-03-07T18:17:59.073Z,3.97
2023-03-07T18:23:07.806Z,3.40
2023-03-07T18:28:14.151Z,2.40
2023-03-07T18:33:19.461Z,2.60
2023-03-07T18:38:29.367Z,3.00
2023-03-07T18:43:34.276Z,3.67
2023-03-07T18:48:39.627Z,2.30
2023-03-07T18:53:49.629Z,1.80
2023-03-07T18:58:56.936Z,2.23
2023-03-07T19:04:05.372Z,3.00
2023-03-07T19:09:17.595Z,2.43
2023-03-07T19:14:26.498Z,2.67
2023-03-07T19:19:31.753Z,3.90
2023-03-07T19:24:40.566Z,1.77
2023-03-07T19:29:46.079Z,2.40
2023-03-07T19:34:52.809Z,2.47
2023-03-07T19:40:01.011Z,2.10
2023-03-07T19:45:07.661Z,2.33
2023-03-07T19:50:15.099Z,3.43
2023-03-07T19:55:25.492Z,5.07
2023-03-07T20:00:31.077Z,3.03
2023-03-07T20:05:37.112Z,3.40
2023-03-07T20:10:46.426Z,4.50
2023-03-07T20:15:55.165Z,4.97
2023-03-07T20:21:12.439Z,4.97
2023-03-07T20:26:27.286Z,4.10
2023-03-07T20:31:33.968Z,3.47
2023-03-07T20:36:43.082Z,4.00
2023-03-07T20:41:55.805Z,4.23
2023-03-07T20:47:05.940Z,4.17
2023-03-07T20:52:11.660Z,3.93
2023-03-07T20:57:28.367Z,3.80
2023-03-07T21:02:34.095Z,4.00
2023-03-07T21:07:39.850Z,6.03
2023-03-07T21:12:47.865Z,3.83
2023-03-07T21:17:56.988Z,4.07
2023-03-07T21:23:03.496Z,4.20
2023-03-07T21:28:14.503Z,3.90
2023-03-07T21:33:22.113Z,4.37
2023-03-07T21:38:29.969Z,4.73
2023-03-07T21:43:38.197Z,4.50
2023-03-07T21:48:46.750Z,4.20
2023-03-07T21:53:51.914Z,3.90
2023-03-07T21:58:59.688Z,4.23
2023-03-07T22:04:07.174Z,4.13
2023-03-07T22:09:13.100Z,4.33
2023-03-07T22:14:21.790Z,3.83
2023-03-07T22:19:26.775Z,4.20
2023-03-07T22:24:31.829Z,3.90
2023-03-07T22:29:39.424Z,3.50
2023-03-07T22:34:49.008Z,2.60
2023-03-07T22:39:56.682Z,2.23
2023-03-07T22:45:10.097Z,4.33
2023-03-07T22:50:16.720Z,2.83
2023-03-07T22:55:23.105Z,2.50
2023-03-07T23:00:30.787Z,3.00
2023-03-07T23:05:38.863Z,2.07
2023-03-07T23:10:43.829Z,2.70
2023-03-07T23:15:51.568Z,3.73
2023-03-07T23:20:56.808Z,3.20
2023-03-07T23:26:02.629Z,3.17
2023-03-07T23:31:18.932Z,2.23
2023-03-07T23:36:23.918Z,2.50
2023-03-07T23:41:30.399Z,2.23
2023-03-07T23:46:38.549Z,2.37
2023-03-07T23:51:44.704Z,3.10
2023-03-07T23:56:49.711Z,2.50
